createdAt,value
2017-08-19T00:00:39.213Z,96.50
2017-08-19T00:03:06.749Z,96.30
2017-08-19T00:05:34.237Z,96.30
2017-08-19T00:08:01.741Z,96.20
2017-08-19T00:10:29.229Z,96.10
2017-08-19T00:12:56.732Z,96.10
2017-08-19T00:15:24.291Z,96.10
2017-08-19T00:17:51.793Z,96.00
2017-08-19T00:20:19.277Z,96.40
2017-08-19T00:22:46.792Z,96.20
2017-08-19T00:25:14.277Z,96.20
2017-08-19T00:27:41.770Z,95.70
2017-08-19T00:30:09.325Z,96.20
2017-08-19T00:32:36.813Z,95.70
2017-08-19T00:35:04.414Z,95.90
2017-08-19T00:37:31.982Z,96.10
2017-08-19T00:39:59.502Z,95.60
2017-08-19T00:42:26.986Z,96.20
2017-08-19T00:44:54.557Z,95.50
2017-08-19T00:47:22.860Z,95.40
2017-08-19T00:49:50.365Z,95.40
2017-08-19T00:52:17.861Z,95.60
2017-08-19T00:54:45.381Z,95.30
2017-08-19T00:57:12.868Z,95.00
2017-08-19T00:59:40.469Z,95.10
2017-08-19T01:02:07.956Z,95.40
2017-08-19T01:04:35.436Z,95.10
2017-08-19T01:07:03.781Z,94.70
2017-08-19T01:09:32.077Z,95.00
2017-08-19T01:11:59.658Z,94.80
2017-08-19T01:14:27.164Z,94.90
2017-08-19T01:16:54.669Z,94.90
2017-08-19T01:19:22.156Z,95.00
2017-08-19T01:21:49.665Z,94.70
2017-08-19T01:24:17.917Z,95.00
2017-08-19T01:26:57.352Z,95.00
2017-08-19T01:29:25.605Z,95.00
2017-08-19T01:31:53.189Z,95.00
2017-08-19T01:34:20.673Z,95.20
2017-08-19T01:36:48.190Z,95.20
2017-08-19T01:39:15.722Z,95.00
2017-08-19T01:41:43.235Z,95.20
2017-08-19T01:44:11.525Z,95.50
2017-08-19T01:46:39.093Z,95.40
2017-08-19T01:49:06.578Z,95.20
2017-08-19T01:51:34.157Z,95.30
2017-08-19T01:54:01.661Z,95.10
2017-08-19T01:56:29.226Z,95.20
2017-08-19T01:58:57.497Z,95.20
2017-08-19T02:01:24.985Z,95.10
2017-08-19T02:03:52.589Z,95.10
2017-08-19T02:06:20.141Z,95.20
2017-08-19T02:08:47.684Z,95.10
2017-08-19T02:11:15.248Z,95.40
2017-08-19T02:13:42.769Z,95.70
2017-08-19T02:16:10.262Z,95.50
2017-08-19T02:18:37.749Z,95.30
2017-08-19T02:21:05.254Z,95.70
2017-08-19T02:23:32.858Z,95.60
2017-08-19T02:26:00.453Z,95.50
2017-08-19T02:28:27.997Z,96.00
2017-08-19T02:30:55.645Z,95.60
2017-08-19T02:33:23.124Z,95.70
2017-08-19T02:35:50.732Z,95.90
2017-08-19T02:38:18.277Z,95.50
2017-08-19T02:40:45.785Z,95.50
2017-08-19T02:43:13.286Z,95.50
2017-08-19T02:45:40.807Z,95.50
2017-08-19T02:48:08.353Z,95.40
2017-08-19T02:50:35.900Z,95.60
2017-08-19T02:53:03.393Z,95.30
2017-08-19T02:55:30.888Z,95.40
2017-08-19T02:57:58.421Z,95.20
2017-08-19T03:00:25.965Z,95.40
2017-08-19T03:02:53.472Z,95.10
2017-08-19T03:05:21.017Z,95.40
2017-08-19T03:07:48.588Z,95.30
2017-08-19T03:10:16.085Z,95.50
2017-08-19T03:12:43.585Z,95.30
2017-08-19T03:15:11.129Z,95.20
2017-08-19T03:17:38.681Z,95.20
2017-08-19T03:20:06.168Z,95.60
2017-08-19T03:22:33.687Z,95.40
2017-08-19T03:25:01.244Z,95.60
2017-08-19T03:27:28.789Z,95.30
2017-08-19T03:29:56.297Z,95.50
2017-08-19T03:32:23.781Z,95.40
2017-08-19T03:34:51.321Z,95.40
2017-08-19T03:37:18.888Z,95.40
2017-08-19T03:39:46.422Z,95.50
2017-08-19T03:42:13.904Z,95.40
2017-08-19T03:44:41.416Z,95.40
2017-08-19T03:47:08.936Z,95.70
2017-08-19T03:49:36.479Z,95.50
2017-08-19T03:52:04.024Z,95.10
2017-08-19T03:54:31.538Z,95.50
2017-08-19T03:56:59.824Z,95.50
2017-08-19T03:59:27.372Z,95.40
2017-08-19T04:01:54.913Z,95.60
2017-08-19T04:04:22.464Z,95.60
2017-08-19T04:06:50.000Z,95.40
2017-08-19T04:09:17.560Z,95.30
2017-08-19T04:11:45.100Z,95.50
2017-08-19T04:14:12.640Z,95.40
2017-08-19T04:16:40.181Z,95.80
2017-08-19T04:19:07.729Z,95.40
2017-08-19T04:21:35.229Z,95.40
2017-08-19T04:24:02.809Z,95.40
2017-08-19T04:26:30.361Z,95.50
2017-08-19T04:28:57.855Z,95.30
2017-08-19T04:31:25.441Z,95.20
2017-08-19T04:33:52.920Z,95.10
2017-08-19T04:36:20.417Z,95.20
2017-08-19T04:38:47.984Z,95.10
2017-08-19T04:41:15.524Z,95.30
2017-08-19T04:43:43.056Z,95.20
2017-08-19T04:46:10.545Z,95.30
2017-08-19T04:48:38.153Z,95.20
2017-08-19T04:51:05.688Z,95.30
2017-08-19T04:53:33.192Z,95.40
2017-08-19T04:56:00.780Z,95.00
2017-08-19T04:58:28.352Z,94.90
2017-08-19T05:00:55.868Z,95.20
2017-08-19T05:03:23.420Z,95.00
2017-08-19T05:05:50.965Z,94.70
2017-08-19T05:08:18.504Z,94.90
2017-08-19T05:10:46.045Z,94.20
2017-08-19T05:13:13.693Z,94.00
2017-08-19T05:15:41.196Z,94.30
2017-08-19T05:18:08.688Z,94.20
2017-08-19T05:20:36.189Z,94.00
2017-08-19T05:23:03.696Z,94.00
2017-08-19T05:25:31.236Z,93.30
2017-08-19T05:27:58.780Z,93.20
2017-08-19T05:30:26.356Z,93.10
2017-08-19T05:32:53.857Z,92.40
2017-08-19T05:35:22.132Z,91.20
2017-08-19T05:37:49.684Z,91.10
2017-08-19T05:40:17.225Z,90.60
2017-08-19T05:42:44.721Z,88.90
2017-08-19T05:45:12.237Z,88.40
2017-08-19T05:47:39.761Z,86.20
2017-08-19T05:50:07.244Z,85.60
2017-08-19T05:52:34.741Z,86.20
2017-08-19T05:55:02.309Z,85.90
2017-08-19T05:57:29.828Z,85.70
2017-08-19T05:59:57.369Z,85.00
2017-08-19T06:02:24.865Z,82.60
2017-08-19T06:04:52.350Z,83.40
2017-08-19T06:07:19.901Z,83.10
2017-08-19T06:09:47.392Z,83.70
2017-08-19T06:12:14.987Z,84.20
2017-08-19T06:14:42.473Z,83.40
2017-08-19T06:17:09.993Z,83.90
2017-08-19T06:19:37.520Z,84.30
2017-08-19T06:22:05.012Z,84.30
2017-08-19T06:24:32.513Z,83.00
2017-08-19T06:27:00.060Z,82.70
2017-08-19T06:29:27.565Z,81.40
2017-08-19T06:31:55.148Z,81.90
2017-08-19T06:34:22.696Z,81.70
2017-08-19T06:36:50.240Z,84.50
2017-08-19T06:39:17.784Z,84.80
2017-08-19T06:41:45.268Z,84.40
2017-08-19T06:44:12.869Z,84.20
2017-08-19T06:46:40.350Z,84.60
2017-08-19T06:49:07.960Z,85.60
2017-08-19T06:51:35.445Z,85.20
2017-08-19T06:54:02.930Z,85.00
2017-08-19T06:56:30.489Z,85.20
2017-08-19T06:58:57.977Z,85.20
2017-08-19T07:01:25.581Z,85.20
2017-08-19T07:03:53.080Z,85.30
2017-08-19T07:06:20.590Z,84.90
2017-08-19T07:08:48.077Z,82.60
2017-08-19T07:11:16.372Z,84.60
2017-08-19T07:13:43.917Z,84.40
2017-08-19T07:16:11.457Z,83.90
2017-08-19T07:18:38.945Z,83.50
2017-08-19T07:21:06.536Z,84.00
2017-08-19T07:23:34.113Z,83.00
2017-08-19T07:26:01.637Z,82.50
2017-08-19T07:28:29.181Z,81.40
2017-08-19T07:30:56.724Z,82.10
2017-08-19T07:33:24.211Z,82.00
2017-08-19T07:35:51.693Z,84.20
2017-08-19T07:38:19.256Z,82.10
2017-08-19T07:40:46.792Z,83.10
2017-08-19T07:43:14.332Z,83.20
2017-08-19T07:45:41.820Z,82.90
2017-08-19T07:48:09.425Z,82.00
2017-08-19T07:50:36.913Z,83.00
2017-08-19T07:53:04.512Z,84.90
2017-08-19T07:55:32.082Z,86.20
2017-08-19T07:57:59.585Z,86.90
2017-08-19T08:00:27.864Z,85.90
2017-08-19T08:02:56.333Z,85.70
2017-08-19T08:05:24.002Z,84.40
2017-08-19T08:07:51.621Z,85.10
2017-08-19T08:10:19.104Z,82.80
2017-08-19T08:12:46.613Z,82.60
2017-08-19T08:15:14.152Z,82.90
2017-08-19T08:17:41.645Z,81.70
2017-08-19T08:20:09.237Z,82.60
2017-08-19T08:22:36.782Z,84.00
2017-08-19T08:25:04.328Z,85.60
2017-08-19T08:27:31.868Z,83.90
2017-08-19T08:29:59.417Z,83.80
2017-08-19T08:32:26.963Z,85.00
2017-08-19T08:34:54.489Z,84.20
2017-08-19T08:37:22.760Z,85.00
2017-08-19T08:39:50.240Z,84.80
2017-08-19T08:42:17.747Z,84.70
2017-08-19T08:44:45.294Z,82.90
2017-08-19T08:47:12.846Z,83.30
2017-08-19T08:49:40.388Z,83.70
2017-08-19T08:52:07.904Z,83.40
2017-08-19T08:54:36.158Z,82.80
2017-08-19T08:57:04.429Z,82.20
2017-08-19T08:59:32.692Z,83.50
2017-08-19T09:02:01.068Z,82.10
2017-08-19T09:04:28.555Z,82.10
2017-08-19T09:06:56.060Z,84.70
2017-08-19T09:09:23.604Z,82.10
2017-08-19T09:11:51.140Z,82.20
2017-08-19T09:14:18.714Z,81.30
2017-08-19T09:16:46.233Z,80.30
2017-08-19T09:19:13.780Z,79.50
2017-08-19T09:21:41.322Z,79.90
2017-08-19T09:24:08.805Z,79.30
2017-08-19T09:26:36.300Z,76.60
2017-08-19T09:29:04.052Z,77.10
2017-08-19T09:31:31.593Z,78.60
2017-08-19T09:33:59.152Z,76.60
2017-08-19T09:36:26.689Z,78.30
2017-08-19T09:38:54.332Z,77.00
2017-08-19T09:41:21.876Z,76.70
2017-08-19T09:43:49.377Z,78.60
2017-08-19T09:46:16.970Z,76.60
2017-08-19T09:48:44.504Z,78.80
2017-08-19T09:51:12.053Z,79.70
2017-08-19T09:53:40.417Z,81.80
2017-08-19T09:56:07.908Z,81.60
2017-08-19T09:58:35.408Z,79.10
2017-08-19T10:01:02.896Z,78.20
2017-08-19T10:03:30.502Z,77.80
2017-08-19T10:05:58.036Z,79.10
2017-08-19T10:08:37.577Z,78.10
2017-08-19T10:11:17.044Z,77.10
2017-08-19T10:13:44.568Z,73.80
2017-08-19T10:16:12.142Z,73.80
2017-08-19T10:18:39.643Z,76.30
2017-08-19T10:21:07.148Z,72.40
2017-08-19T10:23:34.633Z,71.50
2017-08-19T10:26:02.189Z,72.90
2017-08-19T10:28:29.738Z,68.80
2017-08-19T10:30:57.249Z,68.00
2017-08-19T10:33:25.508Z,67.20
2017-08-19T10:35:53.801Z,66.00
2017-08-19T10:38:21.357Z,65.90
2017-08-19T10:40:48.890Z,66.30
2017-08-19T10:43:16.455Z,65.70
2017-08-19T10:45:43.957Z,66.80
2017-08-19T10:48:12.332Z,62.30
2017-08-19T10:50:39.865Z,62.20
2017-08-19T10:53:07.417Z,61.50
2017-08-19T10:55:34.965Z,63.00
2017-08-19T10:58:02.509Z,64.70
2017-08-19T11:00:30.021Z,65.60
2017-08-19T11:02:57.561Z,62.90
2017-08-19T11:05:25.072Z,61.20
2017-08-19T11:07:52.624Z,61.80
2017-08-19T11:10:20.142Z,59.80
2017-08-19T11:12:47.653Z,59.60
2017-08-19T11:15:15.928Z,56.50
2017-08-19T11:17:43.473Z,56.10
2017-08-19T11:20:11.034Z,57.50
2017-08-19T11:22:38.542Z,56.10
2017-08-19T11:25:06.933Z,56.70
2017-08-19T11:27:34.435Z,56.00
2017-08-19T11:30:02.017Z,56.20
2017-08-19T11:32:29.518Z,57.70
2017-08-19T11:34:57.008Z,59.20
2017-08-19T11:37:24.544Z,58.70
2017-08-19T11:39:52.060Z,57.50
2017-08-19T11:42:20.355Z,60.00
2017-08-19T11:44:47.849Z,59.70
2017-08-19T11:47:15.368Z,62.00
2017-08-19T11:49:42.876Z,61.70
2017-08-19T11:52:10.365Z,58.80
2017-08-19T11:54:37.868Z,58.60
2017-08-19T11:57:05.349Z,58.10
2017-08-19T11:59:32.849Z,59.10
2017-08-19T12:02:00.339Z,58.40
2017-08-19T12:04:27.838Z,54.60
2017-08-19T12:06:55.420Z,52.80
2017-08-19T12:09:22.928Z,51.00
2017-08-19T12:11:50.573Z,51.70
2017-08-19T12:14:18.078Z,50.90
2017-08-19T12:16:45.569Z,53.20
2017-08-19T12:19:13.086Z,53.40
2017-08-19T12:21:41.340Z,54.90
2017-08-19T12:24:09.612Z,56.20
2017-08-19T12:26:37.120Z,56.20
2017-08-19T12:29:04.609Z,56.10
2017-08-19T12:31:32.179Z,57.80
2017-08-19T12:33:59.696Z,57.40
2017-08-19T12:36:27.237Z,55.10
2017-08-19T12:38:54.887Z,54.30
2017-08-19T12:41:22.397Z,53.30
2017-08-19T12:43:49.989Z,54.40
2017-08-19T12:46:17.513Z,56.10
2017-08-19T12:48:45.009Z,55.40
2017-08-19T12:51:12.611Z,55.80
2017-08-19T12:53:40.596Z,56.00
2017-08-19T12:56:08.236Z,57.00
2017-08-19T12:58:35.752Z,57.10
2017-08-19T13:01:03.397Z,57.80
2017-08-19T13:03:30.877Z,58.20
2017-08-19T13:05:58.401Z,56.30
2017-08-19T13:08:25.896Z,57.20
2017-08-19T13:10:54.193Z,53.20
2017-08-19T13:13:21.710Z,53.00
2017-08-19T13:15:49.993Z,50.90
2017-08-19T13:18:17.500Z,50.70
2017-08-19T13:20:45.006Z,47.20
2017-08-19T13:23:12.508Z,49.00
2017-08-19T13:25:40.167Z,50.30
2017-08-19T13:28:07.839Z,47.40
2017-08-19T13:30:35.378Z,45.00
2017-08-19T13:33:03.943Z,45.70
2017-08-19T13:35:42.662Z,45.90
2017-08-19T13:38:10.292Z,44.90
2017-08-19T13:40:46.959Z,46.10
2017-08-19T13:43:15.480Z,45.10
2017-08-19T13:45:43.150Z,45.10
2017-08-19T13:48:14.099Z,48.20
2017-08-19T13:50:41.612Z,48.80
2017-08-19T13:53:09.128Z,47.60
2017-08-19T13:55:36.758Z,49.20
2017-08-19T13:58:04.244Z,50.30
2017-08-19T14:00:31.757Z,53.70
2017-08-19T14:02:59.245Z,55.70
2017-08-19T14:05:26.740Z,55.00
2017-08-19T14:07:55.020Z,57.70
2017-08-19T14:10:22.561Z,57.70
2017-08-19T14:12:50.045Z,58.40
2017-08-19T14:15:17.580Z,59.30
2017-08-19T14:17:45.077Z,63.50
2017-08-19T14:20:13.362Z,73.10
2017-08-19T14:22:40.848Z,73.20
2017-08-19T14:25:08.371Z,79.90
2017-08-19T14:27:35.988Z,80.60
2017-08-19T14:30:03.562Z,81.70
2017-08-19T14:32:31.045Z,80.20
2017-08-19T14:34:58.733Z,81.20
2017-08-19T14:37:26.224Z,79.30
2017-08-19T14:39:53.806Z,79.50
2017-08-19T14:42:21.298Z,78.50
2017-08-19T14:44:48.898Z,81.00
2017-08-19T14:47:16.396Z,79.00
2017-08-19T14:49:43.990Z,79.10
2017-08-19T14:52:12.605Z,79.90
2017-08-19T14:54:40.092Z,79.10
2017-08-19T14:57:07.609Z,78.40
2017-08-19T14:59:35.095Z,78.20
2017-08-19T15:02:02.593Z,78.20
2017-08-19T15:04:30.080Z,75.90
2017-08-19T15:06:57.578Z,75.80
2017-08-19T15:09:25.881Z,74.90
2017-08-19T15:11:53.427Z,74.90
2017-08-19T15:14:20.965Z,75.20
2017-08-19T15:16:48.509Z,73.20
2017-08-19T15:19:15.996Z,73.50
2017-08-19T15:21:43.513Z,73.50
2017-08-19T15:24:11.021Z,72.50
2017-08-19T15:26:39.268Z,72.10
2017-08-19T15:29:06.772Z,72.00
2017-08-19T15:31:34.390Z,73.30
2017-08-19T15:34:01.953Z,73.00
2017-08-19T15:36:29.473Z,74.10
2017-08-19T15:38:57.021Z,74.80
2017-08-19T15:41:24.527Z,74.30
2017-08-19T15:43:52.850Z,73.80
2017-08-19T15:46:20.337Z,74.50
2017-08-19T15:48:48.612Z,73.60
2017-08-19T15:51:16.096Z,73.50
2017-08-19T15:53:43.626Z,71.80
2017-08-19T15:56:11.122Z,72.50
2017-08-19T15:58:38.706Z,71.70
2017-08-19T16:01:06.200Z,72.70
2017-08-19T16:03:33.700Z,73.00
2017-08-19T16:06:01.197Z,72.90
2017-08-19T16:08:28.721Z,72.80
2017-08-19T16:10:56.219Z,72.70
2017-08-19T16:13:23.706Z,72.90
2017-08-19T16:15:51.212Z,73.80
2017-08-19T16:18:18.740Z,74.40
2017-08-19T16:20:46.290Z,75.00
2017-08-19T16:23:13.843Z,75.40
2017-08-19T16:25:41.498Z,76.50
2017-08-19T16:28:09.054Z,78.10
2017-08-19T16:30:36.582Z,78.20
2017-08-19T16:33:04.114Z,78.50
2017-08-19T16:35:31.608Z,78.80
2017-08-19T16:37:59.206Z,78.30
2017-08-19T16:40:26.705Z,78.80
2017-08-19T16:42:54.289Z,79.60
2017-08-19T16:45:21.833Z,79.70
2017-08-19T16:47:49.317Z,79.90
2017-08-19T16:50:16.928Z,80.10
2017-08-19T16:52:44.447Z,80.10
2017-08-19T16:55:11.980Z,79.60
2017-08-19T16:57:40.272Z,81.10
2017-08-19T17:00:07.812Z,81.10
2017-08-19T17:02:35.318Z,80.80
2017-08-19T17:05:02.896Z,80.70
2017-08-19T17:07:30.401Z,80.20
2017-08-19T17:09:57.914Z,80.10
2017-08-19T17:12:25.408Z,78.80
2017-08-19T17:14:53.689Z,79.00
2017-08-19T17:17:21.241Z,79.10
2017-08-19T17:19:48.728Z,78.20
2017-08-19T17:22:16.232Z,78.40
2017-08-19T17:24:43.721Z,79.50
2017-08-19T17:27:11.233Z,79.90
2017-08-19T17:29:38.764Z,80.30
2017-08-19T17:32:06.365Z,80.40
2017-08-19T17:34:33.985Z,80.60
2017-08-19T17:37:01.592Z,80.70
2017-08-19T17:39:29.077Z,81.10
2017-08-19T17:41:56.580Z,81.50
2017-08-19T17:44:24.120Z,81.80
2017-08-19T17:46:51.653Z,81.70
2017-08-19T17:49:19.226Z,82.20
2017-08-19T17:51:46.749Z,83.00
2017-08-19T17:54:24.171Z,83.40
2017-08-19T17:56:51.764Z,83.90
2017-08-19T17:59:19.297Z,83.50
2017-08-19T18:01:46.888Z,84.10
2017-08-19T18:04:14.401Z,83.90
2017-08-19T18:06:41.892Z,83.50
2017-08-19T18:09:09.492Z,84.40
2017-08-19T18:11:36.983Z,84.30
2017-08-19T18:14:04.605Z,84.40
2017-08-19T18:16:32.121Z,84.20
2017-08-19T18:18:59.629Z,84.40
2017-08-19T18:21:27.208Z,84.50
2017-08-19T18:23:54.721Z,84.50
2017-08-19T18:26:22.205Z,84.80
2017-08-19T18:28:49.727Z,85.10
2017-08-19T18:31:17.280Z,85.50
2017-08-19T18:33:44.764Z,85.40
2017-08-19T18:36:12.376Z,85.60
2017-08-19T18:38:39.908Z,85.70
2017-08-19T18:41:07.456Z,85.80
2017-08-19T18:43:35.012Z,86.00
2017-08-19T18:46:02.509Z,86.10
2017-08-19T18:48:30.096Z,86.80
2017-08-19T18:50:57.741Z,86.90
2017-08-19T18:53:25.281Z,87.80
2017-08-19T18:55:52.796Z,87.90
2017-08-19T18:58:21.084Z,88.90
2017-08-19T19:00:48.632Z,88.90
2017-08-19T19:03:16.203Z,89.40
2017-08-19T19:05:43.684Z,89.50
2017-08-19T19:08:11.265Z,90.00
2017-08-19T19:10:38.766Z,90.10
2017-08-19T19:13:06.269Z,90.30
2017-08-19T19:15:33.820Z,90.30
2017-08-19T19:18:01.362Z,90.40
2017-08-19T19:20:28.891Z,90.60
2017-08-19T19:22:56.425Z,90.50
2017-08-19T19:25:23.908Z,90.80
2017-08-19T19:27:51.407Z,91.00
2017-08-19T19:30:18.892Z,90.70
2017-08-19T19:32:46.461Z,90.40
2017-08-19T19:35:13.945Z,90.20
2017-08-19T19:37:41.586Z,90.40
2017-08-19T19:40:09.135Z,90.30
2017-08-19T19:42:36.700Z,90.50
2017-08-19T19:45:04.228Z,90.50
2017-08-19T19:47:32.689Z,90.50
2017-08-19T19:50:00.256Z,90.50
2017-08-19T19:52:27.770Z,90.60
2017-08-19T19:54:55.308Z,90.70
2017-08-19T19:57:22.885Z,90.70
2017-08-19T19:59:50.428Z,90.60
2017-08-19T20:02:17.949Z,90.60
2017-08-19T20:04:45.490Z,90.80
2017-08-19T20:07:13.061Z,90.80
2017-08-19T20:09:40.556Z,90.90
2017-08-19T20:12:08.849Z,91.10
2017-08-19T20:14:36.390Z,91.10
2017-08-19T20:17:03.872Z,91.10
2017-08-19T20:19:31.470Z,91.30
2017-08-19T20:21:59.021Z,91.30
2017-08-19T20:24:26.556Z,91.30
2017-08-19T20:26:54.105Z,91.30
2017-08-19T20:29:21.592Z,91.40
2017-08-19T20:31:49.192Z,91.50
2017-08-19T20:34:16.673Z,91.50
2017-08-19T20:36:44.281Z,91.70
2017-08-19T20:39:11.761Z,91.80
2017-08-19T20:41:39.292Z,92.10
2017-08-19T20:44:06.813Z,92.30
2017-08-19T20:46:34.358Z,92.40
2017-08-19T20:49:01.841Z,92.50
2017-08-19T20:51:29.384Z,92.60
2017-08-19T20:53:56.868Z,92.60
2017-08-19T20:56:25.139Z,92.60
2017-08-19T20:58:52.713Z,92.50
2017-08-19T21:01:20.223Z,92.60
2017-08-19T21:03:47.802Z,92.50
2017-08-19T21:06:15.336Z,92.60
2017-08-19T21:08:42.825Z,92.50
2017-08-19T21:11:10.309Z,92.70
2017-08-19T21:13:37.854Z,92.80
2017-08-19T21:16:05.332Z,92.80
2017-08-19T21:18:32.823Z,92.80
2017-08-19T21:21:00.313Z,92.90
2017-08-19T21:23:27.817Z,92.90
2017-08-19T21:25:55.365Z,92.90
2017-08-19T21:28:22.869Z,93.00
2017-08-19T21:30:50.452Z,93.00
2017-08-19T21:33:17.953Z,93.00
2017-08-19T21:35:45.445Z,93.00
2017-08-19T21:38:13.111Z,93.20
2017-08-19T21:40:40.637Z,93.20
2017-08-19T21:43:08.174Z,93.20
2017-08-19T21:45:35.721Z,93.20
2017-08-19T21:48:03.200Z,93.10
2017-08-19T21:50:30.699Z,93.20
2017-08-19T21:52:58.202Z,93.20
2017-08-19T21:55:25.783Z,93.20
2017-08-19T21:57:53.264Z,93.20
2017-08-19T22:00:20.769Z,93.30
2017-08-19T22:02:48.320Z,93.30
2017-08-19T22:05:15.820Z,93.30
2017-08-19T22:07:43.349Z,93.30
2017-08-19T22:10:10.853Z,93.40
2017-08-19T22:12:38.408Z,93.30
2017-08-19T22:15:05.979Z,93.30
2017-08-19T22:17:33.464Z,93.20
2017-08-19T22:20:01.771Z,93.50
2017-08-19T22:22:29.256Z,93.20
2017-08-19T22:24:57.536Z,93.40
2017-08-19T22:27:25.104Z,93.40
2017-08-19T22:29:52.636Z,93.30
2017-08-19T22:32:20.173Z,93.10
2017-08-19T22:34:48.586Z,93.10
2017-08-19T22:37:16.185Z,93.10
2017-08-19T22:39:43.672Z,93.20
2017-08-19T22:42:11.181Z,93.30
2017-08-19T22:44:38.664Z,93.30
2017-08-19T22:47:06.272Z,93.20
2017-08-19T22:49:33.809Z,92.90
2017-08-19T22:52:01.457Z,92.80
2017-08-19T22:54:29.102Z,92.80
2017-08-19T22:56:56.640Z,92.80
2017-08-19T22:59:24.122Z,92.70
2017-08-19T23:01:51.642Z,92.60
2017-08-19T23:04:19.168Z,92.30
2017-08-19T23:06:46.656Z,92.40
2017-08-19T23:09:14.155Z,92.10
2017-08-19T23:11:41.664Z,92.00
2017-08-19T23:14:09.184Z,91.90
2017-08-19T23:16:36.688Z,91.60
2017-08-19T23:19:04.260Z,91.60
2017-08-19T23:21:31.780Z,91.80
2017-08-19T23:23:59.281Z,91.30
2017-08-19T23:26:26.889Z,91.20
2017-08-19T23:28:54.404Z,91.10
2017-08-19T23:31:21.884Z,91.10
2017-08-19T23:33:49.400Z,90.90
2017-08-19T23:36:16.932Z,90.80
2017-08-19T23:38:44.417Z,90.60
2017-08-19T23:41:11.961Z,90.50
2017-08-19T23:43:39.464Z,90.40
2017-08-19T23:46:06.970Z,90.30
2017-08-19T23:48:34.467Z,90.30
2017-08-19T23:51:01.985Z,90.10
2017-08-19T23:53:29.479Z,90.10
2017-08-19T23:55:57.076Z,90.00
2017-08-19T23:58:24.561Z,90.00
